Tigard, Oregon
Current Conditions -  °F | °C
As of 11:53 PM on Saturday 25 Oct 2014 (Local Time) from KHIO Reporting Station
Light Rain Light Rain  
Wind Chill: 50°   Ceiling: 6000
Heat Index: 50°   Visibility: 10mi
Dew Point: 48°   Wind: 10mph
Humidity: 93%   Direction: 190°S
Pressure: 29.9"   Gusts: NA
Location:  45.43°N, 122.76°W
Report Text: KHIO 260653Z 19009KT 10SM -RA BKN060 OVC080 10/09 A2990 RMK AO2 RAB19 SLP123 P0001 T01000089
Loading
Personal Weather Stations






























Interactive Weather Map
Tropical Storm Tracking
New forecast layout! Learn more

10-Day Weather Forecast

Advertisements
Track Severe Weather on mobile